Time;durP1;ratioP1;P1;durP2;ratioP2;P2;SDS_P1;SDS_P2;PMS_P1;PMS_P2;Temp;Humidity;BMP_temperature;BMP_pressure;BME280_temperature;BME280_humidity;BME280_pressure;Samples;Min_cycle;Max_cycle;Signal;HPM_P1;HPM_P2
2022/04/18 00:00:57;;;;;;;24.65;14.55;;;;;;;7.88;65.18;102025.81;5074172;28;20121;-57
2022/04/18 00:03:25;;;;;;;23.10;14.50;;;;;;;7.85;65.77;102023.31;5074355;28;20064;-57
2022/04/18 00:05:53;;;;;;;20.83;13.95;;;;;;;7.78;66.17;102023.53;5074421;28;20543;-57
2022/04/18 00:08:21;;;;;;;22.60;13.90;;;;;;;7.68;67.07;102024.75;5074281;28;20056;-56
2022/04/18 00:10:51;;;;;;;22.17;14.27;;;;;;;7.59;68.22;102015.47;5073760;28;20404;-57
2022/04/18 00:13:19;;;;;;;24.15;14.43;;;;;;;7.54;68.41;102022.63;5073981;28;20503;-57
2022/04/18 00:15:47;;;;;;;23.83;14.48;;;;;;;7.49;68.92;102023.69;5073660;28;20075;-57
2022/04/18 00:18:16;;;;;;;21.70;13.82;;;;;;;7.48;69.38;102016.72;5074286;28;20053;-58
2022/04/18 00:20:44;;;;;;;20.13;13.27;;;;;;;7.40;70.05;102014.34;5074187;28;20040;-58
2022/04/18 00:23:12;;;;;;;21.20;13.90;;;;;;;7.37;69.99;102015.31;5071596;28;20051;-56
2022/04/18 00:25:40;;;;;;;21.02;13.57;;;;;;;7.27;70.40;102012.13;5068402;28;20044;-57
2022/04/18 00:28:10;;;;;;;19.83;13.15;;;;;;;7.23;71.35;102017.53;5073539;28;20093;-54
2022/04/18 00:30:38;;;;;;;20.13;13.38;;;;;;;7.16;72.47;102006.41;5073818;28;20048;-53
2022/04/18 00:33:08;;;;;;;21.55;13.27;;;;;;;7.10;73.06;102011.81;5073832;28;20079;-53
2022/04/18 00:35:36;;;;;;;19.52;13.20;;;;;;;7.08;72.28;102008.41;5071863;28;20056;-52
2022/04/18 00:38:04;;;;;;;18.85;12.88;;;;;;;7.03;72.78;102008.53;5069577;28;20041;-50
2022/04/18 00:40:33;;;;;;;23.85;14.98;;;;;;;6.94;73.65;102014.94;5072450;28;20090;-51
2022/04/18 00:43:05;;;;;;;18.55;12.68;;;;;;;6.85;74.67;102016.97;5073141;28;20357;-51
2022/04/18 00:45:35;;;;;;;21.55;13.13;;;;;;;6.82;75.19;102023.16;5072453;28;20086;-54
2022/04/18 00:48:04;;;;;;;20.98;12.90;;;;;;;6.81;75.02;102010.97;5069344;28;20102;-54
2022/04/18 00:50:34;;;;;;;19.90;13.23;;;;;;;6.76;75.80;102018.09;5069946;28;20076;-54
2022/04/18 00:53:05;;;;;;;20.80;12.98;;;;;;;6.72;73.27;102026.94;5072324;28;20088;-54
2022/04/18 00:55:34;;;;;;;18.63;12.57;;;;;;;6.67;73.05;102013.19;5061503;28;20052;-57
2022/04/18 00:58:03;;;;;;;18.50;12.55;;;;;;;6.65;74.32;102014.97;5061327;28;20053;-56
2022/04/18 01:00:31;;;;;;;20.77;12.65;;;;;;;6.59;73.73;102016.00;5062378;28;20052;-56
2022/04/18 01:03:01;;;;;;;18.00;12.05;;;;;;;6.57;73.85;102010.84;5065250;28;20105;-56
2022/04/18 01:05:29;;;;;;;18.98;12.70;;;;;;;6.52;73.25;102010.09;5066077;28;20476;-55
2022/04/18 01:07:58;;;;;;;23.08;13.02;;;;;;;6.50;75.76;102000.59;5063330;28;20111;-55
2022/04/18 01:10:26;;;;;;;18.95;12.10;;;;;;;6.48;75.59;102005.88;5062180;28;20499;-55
2022/04/18 01:12:54;;;;;;;19.65;13.23;;;;;;;6.40;75.29;102003.47;5070592;28;20403;-57
2022/04/18 01:15:22;;;;;;;18.90;12.98;;;;;;;6.38;76.39;101999.19;5068553;28;20389;-55
2022/04/18 01:17:50;;;;;;;20.45;12.80;;;;;;;6.35;75.56;102001.91;5061153;28;20049;-55
2022/04/18 01:20:20;;;;;;;21.00;13.02;;;;;;;6.29;77.52;102002.09;5067609;28;20040;-57
2022/04/18 01:22:52;;;;;;;18.00;12.52;;;;;;;6.22;77.89;102004.03;5065985;28;20076;-56
2022/04/18 01:30:57;;;;;;;22.15;13.43;;;;;;;6.16;79.68;102006.78;5064647;28;20040;-55
2022/04/18 01:33:26;;;;;;;18.33;12.75;;;;;;;6.13;78.00;102001.66;5069514;28;20109;-58
2022/04/18 01:35:54;;;;;;;18.70;12.93;;;;;;;6.07;77.43;101998.31;5064589;28;20044;-55
2022/04/18 01:38:23;;;;;;;20.38;12.98;;;;;;;6.06;76.62;101996.59;5063587;28;20099;-58
2022/04/18 01:40:52;;;;;;;19.15;12.80;;;;;;;6.04;77.62;101994.91;5062824;28;20086;-57
2022/04/18 01:43:20;;;;;;;20.10;13.75;;;;;;;6.05;77.27;101994.03;5062841;28;20045;-57
2022/04/18 01:45:48;;;;;;;21.70;13.73;;;;;;;6.01;78.16;101985.44;5060567;28;20079;-58
2022/04/18 01:48:16;;;;;;;19.25;13.45;;;;;;;5.97;79.06;101990.75;5059042;28;20056;-55
2022/04/18 01:50:44;;;;;;;17.55;13.32;;;;;;;5.92;77.52;101990.88;5066074;28;20499;-56
2022/04/18 01:53:13;;;;;;;19.40;13.63;;;;;;;5.90;75.51;101988.31;5055697;28;20064;-56
2022/04/18 01:55:42;;;;;;;21.10;13.27;;;;;;;5.88;75.55;101982.25;5062002;28;20128;-56
2022/04/18 01:58:10;;;;;;;20.48;13.40;;;;;;;5.86;75.03;101981.47;5056588;28;20048;-56
2022/04/18 02:00:38;;;;;;;19.80;13.30;;;;;;;5.83;73.85;101980.69;5069449;28;20442;-57
2022/04/18 02:03:07;;;;;;;21.42;13.32;;;;;;;5.84;73.54;101990.22;5055354;28;20134;-57
2022/04/18 02:05:35;;;;;;;18.67;13.40;;;;;;;5.81;73.37;101978.13;5052340;28;20049;-56
2022/04/18 02:08:03;;;;;;;19.77;14.15;;;;;;;5.79;76.63;101982.50;5055836;28;20084;-56
2022/04/18 02:10:31;;;;;;;21.33;14.40;;;;;;;5.78;76.38;101986.03;5065290;28;20110;-56
2022/04/18 02:13:01;;;;;;;19.58;13.75;;;;;;;5.72;77.16;101978.34;5064483;28;20040;-57
2022/04/18 02:15:29;;;;;;;18.63;13.40;;;;;;;5.69;76.81;101975.84;5060587;28;20079;-57
2022/04/18 02:17:57;;;;;;;21.77;13.77;;;;;;;5.62;77.94;101975.13;5068685;28;20068;-57
2022/04/18 02:20:25;;;;;;;20.48;14.35;;;;;;;5.55;77.50;101974.44;5063045;28;20072;-55
2022/04/18 02:22:55;;;;;;;19.25;13.80;;;;;;;5.52;76.71;101977.13;5066720;28;20526;-55
2022/04/18 02:25:24;;;;;;;21.38;13.93;;;;;;;5.49;77.35;101968.53;5068840;28;20044;-56
2022/04/18 02:27:52;;;;;;;20.90;13.73;;;;;;;5.46;77.93;101974.66;5053389;28;20071;-56
2022/04/18 02:30:22;;;;;;;18.95;13.80;;;;;;;5.47;78.35;101965.06;5056631;28;20060;-55
2022/04/18 02:32:51;;;;;;;19.73;12.98;;;;;;;5.42;77.46;101960.00;5066145;28;20044;-56
2022/04/18 02:35:21;;;;;;;18.58;13.95;;;;;;;5.41;77.95;101960.88;5054307;28;20049;-55
2022/04/18 02:37:50;;;;;;;19.05;13.13;;;;;;;5.36;78.33;101957.56;5062999;28;20052;-58
2022/04/18 02:40:18;;;;;;;20.98;13.20;;;;;;;5.31;78.70;101955.03;5066094;28;20044;-57
2022/04/18 02:42:46;;;;;;;20.25;13.30;;;;;;;5.27;78.57;101955.16;5062700;28;20095;-57
2022/04/18 02:45:18;;;;;;;18.73;13.02;;;;;;;5.23;79.11;101952.63;5060623;28;20123;-57
2022/04/18 02:47:48;;;;;;;21.10;13.18;;;;;;;5.20;81.77;101957.91;5061440;28;20037;-56
2022/04/18 02:50:17;;;;;;;20.77;13.93;;;;;;;5.20;82.90;101947.47;5052472;28;20064;-57
2022/04/18 02:52:45;;;;;;;20.67;14.05;;;;;;;5.16;83.34;101943.25;5058925;28;20040;-56
2022/04/18 02:55:13;;;;;;;22.08;14.23;;;;;;;5.13;83.02;101945.09;5063928;28;20056;-54
2022/04/18 02:57:41;;;;;;;20.63;13.57;;;;;;;5.08;83.78;101946.06;5056776;28;20095;-51
2022/04/18 03:00:11;;;;;;;22.05;14.30;;;;;;;5.10;85.12;101942.53;5061654;28;20151;-49
2022/04/18 03:02:40;;;;;;;19.08;13.75;;;;;;;5.05;86.10;101940.06;5055161;28;20068;-51
2022/04/18 03:05:11;;;;;;;17.70;13.65;;;;;;;5.02;86.04;101938.38;5068568;28;20037;-56
2022/04/18 03:07:40;;;;;;;19.80;13.40;;;;;;;5.00;86.14;101939.28;5064352;28;20052;-56
2022/04/18 03:10:09;;;;;;;19.02;14.00;;;;;;;4.98;87.83;101938.50;5071571;28;20102;-55
2022/04/18 03:12:37;;;;;;;22.08;14.27;;;;;;;4.97;86.86;101928.94;5065282;28;20127;-55
2022/04/18 03:15:07;;;;;;;18.40;12.98;;;;;;;4.92;86.44;101926.44;5065579;28;20110;-55
2022/04/18 03:17:35;;;;;;;20.85;13.80;;;;;;;4.89;87.40;101930.00;5064947;28;20072;-55
2022/04/18 03:20:04;;;;;;;21.88;14.15;;;;;;;4.84;89.32;101931.84;5063788;28;20071;-56
2022/04/18 03:22:33;;;;;;;22.80;13.55;;;;;;;4.82;88.78;101925.81;5058333;28;20055;-56
2022/04/18 03:25:01;;;;;;;21.90;13.65;;;;;;;4.82;90.03;101924.97;5064391;28;20526;-55
2022/04/18 03:27:29;;;;;;;20.35;14.88;;;;;;;4.82;91.52;101932.78;5064133;28;20530;-55
2022/04/18 03:29:57;;;;;;;21.17;14.43;;;;;;;4.78;91.99;101929.38;5073581;28;20480;-54
2022/04/18 03:32:25;;;;;;;20.45;13.38;;;;;;;4.76;91.14;101925.09;5074975;28;20049;-56
2022/04/18 03:34:54;;;;;;;17.23;13.27;;;;;;;4.74;91.76;101930.34;5072616;28;20709;-56
2022/04/18 03:40:10;;;;;;;19.60;13.35;;;;;;;4.68;91.33;101927.91;5074420;28;20182;-56
2022/04/18 03:42:39;;;;;;;18.58;13.55;;;;;;;4.62;91.02;101918.47;5074443;28;20041;-53
2022/04/18 03:45:07;;;;;;;21.00;13.18;;;;;;;4.57;90.43;101923.78;5074590;28;20504;-55
2022/04/18 03:47:35;;;;;;;19.75;13.23;;;;;;;4.59;89.33;101922.88;5071832;28;20052;-56
2022/04/18 03:50:04;;;;;;;20.63;13.90;;;;;;;4.57;88.74;101928.97;5069835;28;20083;-56
2022/04/18 03:52:32;;;;;;;22.55;13.75;;;;;;;4.53;89.50;101924.75;5074496;28;20047;-55
2022/04/18 03:55:06;;;;;;;19.85;13.00;;;;;;;4.51;88.51;101918.72;5082640;28;20557;-55
2022/04/18 03:57:36;;;;;;;19.88;13.80;;;;;;;4.50;89.73;101919.59;5070785;28;20155;-54
2022/04/18 04:00:06;;;;;;;17.58;13.13;;;;;;;4.47;91.91;101924.00;5072568;28;20083;-56
2022/04/18 04:02:34;;;;;;;20.08;13.55;;;;;;;4.49;93.13;101922.25;5074523;28;20384;-57
2022/04/18 04:05:03;;;;;;;18.77;13.20;;;;;;;4.45;93.36;101920.59;5074117;28;20044;-52
2022/04/18 04:07:31;;;;;;;20.58;13.35;;;;;;;4.40;92.52;101921.56;5074148;28;20457;-53
2022/04/18 04:09:59;;;;;;;19.05;14.18;;;;;;;4.37;92.27;101915.56;5073920;28;20048;-52
2022/04/18 04:12:28;;;;;;;20.30;13.85;;;;;;;4.30;91.90;101913.97;5074649;28;20049;-50
2022/04/18 04:14:57;;;;;;;19.30;13.55;;;;;;;4.25;91.61;101923.63;5071038;28;20127;-52
2022/04/18 04:17:28;;;;;;;;;;;;;;;4.26;91.52;101909.72;5070562;28;20469;-52
2022/04/18 04:20:17;;;;;;;19.00;13.13;;;;;;;4.28;91.72;101916.63;5074270;28;20382;-50
2022/04/18 04:22:45;;;;;;;19.35;13.63;;;;;;;4.28;92.05;101914.03;5074310;28;20051;-53
2022/04/18 04:25:13;;;;;;;20.10;13.85;;;;;;;4.28;92.59;101918.34;5071533;28;20052;-53
2022/04/18 04:27:41;;;;;;;21.30;12.55;;;;;;;4.30;93.00;101916.59;5069721;28;20506;-50
2022/04/18 04:30:11;;;;;;;18.73;13.63;;;;;;;4.27;92.50;101922.72;5073300;28;20040;-50
2022/04/18 04:32:39;;;;;;;18.85;13.57;;;;;;;4.20;91.50;101919.38;5074108;28;20521;-51
2022/04/18 04:35:08;;;;;;;19.05;13.57;;;;;;;4.19;91.40;101922.88;5072031;28;20531;-52
2022/04/18 04:37:36;;;;;;;19.48;13.68;;;;;;;4.17;91.24;101931.59;5069976;28;20060;-51
2022/04/18 04:40:06;;;;;;;18.02;13.10;;;;;;;4.13;91.17;101928.22;5072721;28;20078;-49
2022/04/18 04:42:34;;;;;;;21.42;13.30;;;;;;;4.11;91.71;101927.38;5073673;28;20144;-51
2022/04/18 04:45:02;;;;;;;18.88;13.23;;;;;;;4.05;92.13;101930.97;5072345;28;20120;-56
2022/04/18 04:47:32;;;;;;;20.52;13.80;;;;;;;4.04;92.47;101934.47;5069804;28;20052;-55
2022/04/18 04:50:00;;;;;;;21.17;13.48;;;;;;;4.08;92.97;101932.66;5070322;28;20094;-56
2022/04/18 04:52:28;;;;;;;18.85;13.55;;;;;;;4.07;93.24;101933.53;5073433;28;20032;-55
2022/04/18 04:54:56;;;;;;;19.80;14.48;;;;;;;4.08;93.07;101932.66;5072715;28;20059;-55
2022/04/18 04:57:25;;;;;;;20.65;13.60;;;;;;;4.10;92.73;101936.06;5073854;28;20049;-54
2022/04/18 04:59:53;;;;;;;20.70;14.20;;;;;;;4.08;92.47;101932.66;5073557;28;20048;-54
2022/04/18 05:02:21;;;;;;;21.05;13.43;;;;;;;4.06;93.28;101926.63;5071529;28;20524;-56
2022/04/18 05:04:51;;;;;;;20.67;12.73;;;;;;;4.06;92.35;101929.22;5070357;28;20091;-55
2022/04/18 05:07:19;;;;;;;19.00;13.70;;;;;;;4.09;92.96;101934.38;5069541;28;20040;-49
2022/04/18 05:09:48;;;;;;;19.45;13.38;;;;;;;4.06;92.82;101929.22;5073357;28;20075;-51
2022/04/18 05:12:16;;;;;;;20.35;14.00;;;;;;;4.00;93.38;101922.41;5071675;28;20049;-51
2022/04/18 05:14:44;;;;;;;19.05;13.45;;;;;;;4.05;93.59;101924.91;5067390;28;20109;-50
2022/04/18 05:17:12;;;;;;;20.27;13.70;;;;;;;4.03;93.11;101911.06;5071145;28;20048;-51
2022/04/18 05:19:40;;;;;;;20.33;14.60;;;;;;;4.06;93.60;101919.69;5072783;28;20044;-51
2022/04/18 05:22:10;;;;;;;20.13;12.93;;;;;;;4.06;94.02;101927.50;5071213;28;20074;-49
2022/04/18 05:24:38;;;;;;;19.45;13.35;;;;;;;4.10;94.39;101923.06;5072748;28;20052;-47
2022/04/18 05:27:07;;;;;;;18.13;12.80;;;;;;;4.15;94.18;101923.81;5072528;28;20052;-52
2022/04/18 05:29:35;;;;;;;19.05;13.50;;;;;;;4.16;94.38;101932.47;5072233;28;20059;-51
2022/04/18 05:32:03;;;;;;;19.83;13.85;;;;;;;4.13;94.40;101930.81;5072598;28;20083;-52
2022/04/18 05:34:31;;;;;;;21.13;13.48;;;;;;;4.17;94.15;101929.88;5071104;28;20053;-51
2022/04/18 05:36:59;;;;;;;21.00;13.63;;;;;;;4.22;93.29;101929.75;5072628;28;20487;-48
2022/04/18 05:39:29;;;;;;;20.52;13.82;;;;;;;4.26;93.76;101930.56;5071010;28;20044;-52
2022/04/18 05:41:57;;;;;;;19.55;13.75;;;;;;;4.30;93.04;101933.06;5068681;28;20048;-50
2022/04/18 05:44:26;;;;;;;18.70;13.43;;;;;;;4.35;93.04;101926.00;5069885;28;20075;-52
2022/04/18 05:46:54;;;;;;;19.83;13.93;;;;;;;4.38;92.67;101930.31;5072572;28;20527;-49
2022/04/18 05:49:23;;;;;;;18.88;13.90;;;;;;;4.49;91.37;101927.47;5071668;28;20047;-53
2022/04/18 05:51:51;;;;;;;19.70;14.20;;;;;;;4.55;89.09;101927.31;5068027;28;20545;-54
2022/04/18 05:54:19;;;;;;;19.23;13.85;;;;;;;4.61;87.61;101928.91;5069836;28;20068;-55
2022/04/18 05:56:49;;;;;;;20.98;13.45;;;;;;;4.66;86.10;101940.09;5072246;28;20052;-56
2022/04/18 05:59:17;;;;;;;19.73;13.80;;;;;;;4.76;84.90;101938.13;5072178;28;20131;-56
2022/04/18 06:01:45;;;;;;;20.40;13.60;;;;;;;4.80;84.14;101940.63;5071978;28;20033;-56
2022/04/18 06:04:13;;;;;;;21.05;13.32;;;;;;;4.89;83.11;101932.59;5070495;28;20214;-56
2022/04/18 06:06:42;;;;;;;21.30;14.52;;;;;;;4.99;82.77;101948.00;5067832;28;20500;-52
2022/04/18 06:09:10;;;;;;;19.92;12.75;;;;;;;5.07;82.50;101946.06;5069672;28;20459;-51
2022/04/18 06:11:38;;;;;;;22.35;13.55;;;;;;;5.16;80.96;101943.25;5072025;28;20460;-52
2022/04/18 06:14:08;;;;;;;19.58;12.52;;;;;;;5.31;78.26;101938.53;5071903;28;20487;-49
2022/04/18 06:16:36;;;;;;;17.80;12.73;;;;;;;5.41;78.00;101937.41;5071544;28;20062;-56
2022/04/18 06:19:04;;;;;;;19.42;12.93;;;;;;;5.52;77.54;101947.56;5064996;28;20052;-57
2022/04/18 06:21:32;;;;;;;19.52;13.05;;;;;;;5.65;77.00;101943.72;5070175;28;20048;-57
2022/04/18 06:24:00;;;;;;;21.67;13.00;;;;;;;5.82;75.22;101942.41;5071739;28;20507;-57
2022/04/18 06:26:29;;;;;;;19.15;12.70;;;;;;;5.95;75.86;101938.56;5071824;28;20091;-56
2022/04/18 06:28:57;;;;;;;19.15;13.02;;;;;;;6.15;73.59;101938.03;5071234;28;20053;-57
2022/04/18 06:31:27;;;;;;;20.98;12.90;;;;;;;6.21;74.29;101934.38;5068071;28;20049;-57
2022/04/18 06:33:55;;;;;;;20.05;13.32;;;;;;;6.44;72.78;101944.13;5068078;28;20148;-57
2022/04/18 06:36:23;;;;;;;18.05;12.73;;;;;;;6.68;71.80;101936.44;5071574;28;20570;-57
2022/04/18 06:38:51;;;;;;;18.73;12.68;;;;;;;6.72;71.78;101940.66;5071722;28;20041;-58
2022/04/18 06:41:19;;;;;;;18.25;12.35;;;;;;;6.81;71.96;101931.69;5068937;28;20446;-56
2022/04/18 06:43:47;;;;;;;19.40;12.25;;;;;;;6.95;72.67;101939.94;5071353;28;20048;-50
2022/04/18 06:46:15;;;;;;;21.20;12.48;;;;;;;7.05;73.71;101930.03;5075364;28;20530;-52
2022/04/18 06:48:45;;;;;;;21.10;13.35;;;;;;;7.25;72.73;101939.81;5075974;28;20045;-51
2022/04/18 06:51:13;;;;;;;17.73;12.10;;;;;;;7.48;71.56;101939.03;5075719;28;20497;-54
2022/04/18 06:53:41;;;;;;;18.05;12.38;;;;;;;7.61;72.01;101945.56;5075579;28;20040;-53
2022/04/18 06:58:55;;;;;;;18.00;12.35;;;;;;;7.94;70.80;101934.78;5075733;28;20052;-53
2022/04/18 07:01:23;;;;;;;17.50;12.50;;;;;;;8.14;71.00;101930.59;5075998;28;20368;-52
2022/04/18 07:03:53;;;;;;;16.98;11.88;;;;;;;8.42;69.65;101927.75;5075552;28;20098;-53
2022/04/18 07:06:21;;;;;;;16.73;11.77;;;;;;;8.66;69.81;101926.88;5075413;28;20037;-54
2022/04/18 07:08:49;;;;;;;16.17;11.55;;;;;;;8.81;69.74;101923.66;5075601;28;20080;-52
2022/04/18 07:11:17;;;;;;;16.02;11.50;;;;;;;9.03;68.94;101920.16;5075518;28;20051;-53
2022/04/18 07:13:45;;;;;;;16.75;10.15;;;;;;;9.20;67.42;101925.53;5075516;28;20048;-54
2022/04/18 07:16:13;;;;;;;16.55;11.00;;;;;;;9.42;68.17;101929.88;5075181;28;20048;-53
2022/04/18 07:18:41;;;;;;;15.77;10.63;;;;;;;9.70;67.42;101934.78;5075242;28;20080;-53
2022/04/18 07:21:11;;;;;;;12.52;8.77;;;;;;;9.97;64.51;101927.44;5075059;28;20509;-51
2022/04/18 07:23:39;;;;;;;11.95;6.68;;;;;;;10.31;56.40;101930.28;5075259;28;20037;-52
2022/04/18 07:26:07;;;;;;;10.35;5.78;;;;;;;10.57;55.18;101921.19;5073157;28;20049;-53
2022/04/18 07:28:38;;;;;;;8.80;5.10;;;;;;;10.78;53.67;101928.97;5071128;28;20056;-53
2022/04/18 07:31:08;;;;;;;10.85;6.30;;;;;;;11.02;53.04;101933.97;5074081;28;20048;-53
2022/04/18 07:33:36;;;;;;;10.38;5.60;;;;;;;11.25;52.67;101927.56;5073245;28;20053;-53
2022/04/18 07:36:04;;;;;;;10.25;5.70;;;;;;;11.60;52.43;101925.75;5071297;28;20511;-54
2022/04/18 07:38:52;;;;;;;8.75;5.25;;;;;;;11.77;48.58;101930.09;5069740;28;20533;-59
2022/04/18 07:41:21;;;;;;;10.50;5.43;;;;;;;12.03;48.38;101927.06;5073383;28;20048;-58
2022/04/18 07:43:50;;;;;;;9.43;5.63;;;;;;;12.32;48.09;101915.75;5069382;28;20052;-58
2022/04/18 07:46:19;;;;;;;10.55;4.78;;;;;;;12.36;46.73;101916.44;5070286;28;20491;-58
2022/04/18 07:48:49;;;;;;;11.23;5.25;;;;;;;12.63;45.94;101923.75;5074944;28;20048;-59
2022/04/18 07:51:34;;;;;;;9.32;4.82;;;;;;;12.78;46.29;101922.00;5074598;28;20572;-58
2022/04/18 07:54:06;;;;;;;10.43;5.00;;;;;;;13.00;45.79;101917.16;5072612;28;20045;-58
2022/04/18 07:56:35;;;;;;;8.45;4.63;;;;;;;13.17;45.17;101917.97;5074366;28;20365;-58
2022/04/18 07:59:03;;;;;;;8.05;4.45;;;;;;;13.33;44.75;101921.44;5074367;28;20072;-58
2022/04/18 08:01:32;;;;;;;8.13;4.85;;;;;;;13.45;45.67;101916.38;5073184;28;20072;-58
2022/04/18 08:04:01;;;;;;;8.88;4.63;;;;;;;13.72;45.05;101916.47;5107011;28;20055;-58
2022/04/18 08:06:30;;;;;;;7.70;4.10;;;;;;;13.94;44.32;101916.00;5071030;28;20051;-59
2022/04/18 08:08:59;;;;;;;9.40;4.95;;;;;;;14.14;43.53;101903.31;5069165;28;20045;-58
2022/04/18 08:11:28;;;;;;;10.38;4.45;;;;;;;14.42;44.38;101902.38;5074440;28;20376;-58
2022/04/18 08:13:57;;;;;;;10.18;5.10;;;;;;;14.57;42.19;101908.47;5074467;28;20075;-58
2022/04/18 08:16:25;;;;;;;10.73;4.97;;;;;;;14.71;43.59;101902.31;5074228;28;20041;-58
2022/04/18 08:18:53;;;;;;;9.25;5.00;;;;;;;14.96;43.00;101904.19;5069272;28;20048;-58
2022/04/18 08:21:21;;;;;;;8.50;4.55;;;;;;;15.13;42.51;101902.19;5069871;28;20098;-58
2022/04/18 08:23:51;;;;;;;8.60;4.30;;;;;;;15.20;41.04;101895.53;5074113;28;20499;-58
2022/04/18 08:26:21;;;;;;;8.32;4.20;;;;;;;15.49;42.14;101903.31;5073990;28;20056;-59
2022/04/18 08:28:51;;;;;;;8.38;4.28;;;;;;;15.68;40.33;101906.34;5074118;28;20080;-58
2022/04/18 08:31:20;;;;;;;8.57;4.05;;;;;;;15.96;40.25;101906.25;5073839;28;20453;-58
2022/04/18 08:33:48;;;;;;;9.75;3.88;;;;;;;15.99;38.42;101906.88;5073411;28;20033;-59
2022/04/18 08:36:16;;;;;;;6.10;3.20;;;;;;;16.25;38.91;101898.81;5069796;28;20519;-58
2022/04/18 08:38:44;;;;;;;8.00;4.13;;;;;;;16.33;37.98;101898.28;5069563;28;20098;-59
2022/04/18 08:41:21;;;;;;;6.38;3.50;;;;;;;16.32;36.49;101893.91;5073698;28;20040;-59
2022/04/18 08:43:53;;;;;;;9.02;3.83;;;;;;;16.61;37.58;101891.78;5073776;28;20063;-59
2022/04/18 08:46:21;;;;;;;7.07;4.07;;;;;;;16.88;36.81;101890.69;5073677;28;20036;-59
2022/04/18 08:54:26;;;;;;;8.10;3.50;;;;;;;17.21;34.59;101894.44;5073211;28;20056;-59
2022/04/18 08:56:54;;;;;;;7.38;3.33;;;;;;;17.45;34.95;101897.00;5072307;28;20066;-59
2022/04/18 08:59:24;;;;;;;6.95;3.15;;;;;;;17.47;34.21;101900.38;5066807;28;20051;-59
2022/04/18 09:01:52;;;;;;;6.53;3.28;;;;;;;17.69;34.52;101896.88;5070248;28;20479;-54
2022/04/18 09:04:21;;;;;;;5.93;2.72;;;;;;;17.93;32.94;101895.94;5072295;28;20076;-54
2022/04/18 09:06:49;;;;;;;6.90;3.17;;;;;;;18.12;34.06;101897.09;5072875;28;20048;-56
2022/04/18 09:09:26;;;;;;;6.07;3.20;;;;;;;18.32;33.64;101893.66;5073237;28;20492;-54
2022/04/18 09:11:54;;;;;;;7.45;3.80;;;;;;;18.39;34.04;101894.88;5073116;28;20051;-55
2022/04/18 09:14:26;;;;;;;7.07;3.33;;;;;;;18.43;31.96;101892.78;5069377;28;20109;-54
2022/04/18 09:16:54;;;;;;;7.13;3.58;;;;;;;18.83;32.50;101881.50;5068259;28;20051;-54
2022/04/18 09:19:22;;;;;;;6.05;3.20;;;;;;;18.93;32.53;101884.25;5070328;28;20072;-53
2022/04/18 09:21:58;;;;;;;7.68;3.70;;;;;;;19.22;32.24;101878.25;5072306;28;20048;-55
2022/04/18 09:24:32;;;;;;;7.25;3.10;;;;;;;19.37;31.22;101876.09;5072300;28;20051;-55
2022/04/18 09:27:06;;;;;;;7.93;3.50;;;;;;;19.50;31.35;101870.56;5072261;28;20050;-55
2022/04/18 09:29:39;;;;;;;6.45;3.47;;;;;;;19.84;30.45;101868.47;5072546;28;20040;-54
2022/04/18 09:32:09;;;;;;;5.43;3.05;;;;;;;20.04;29.27;101865.81;5072379;28;20616;-54
2022/04/18 09:34:37;;;;;;;6.15;3.45;;;;;;;20.23;29.52;101859.66;5072530;28;20043;-54
2022/04/18 09:37:17;;;;;;;6.03;3.17;;;;;;;20.43;29.13;101853.34;5072360;28;20076;-53
2022/04/18 09:39:51;;;;;;;5.88;3.08;;;;;;;20.53;29.96;101861.41;5072466;28;20100;-55
2022/04/18 09:42:22;;;;;;;8.43;3.13;;;;;;;20.59;28.33;101851.97;5072311;28;20040;-54
2022/04/18 09:44:52;;;;;;;7.75;3.53;;;;;;;20.68;28.63;101851.16;5071916;28;20498;-55
2022/04/18 09:47:21;;;;;;;5.40;2.90;;;;;;;20.48;28.83;101854.75;5072489;28;20541;-55
2022/04/18 09:49:50;;;;;;;4.97;2.97;;;;;;;20.92;28.41;101849.84;5072297;28;20110;-53
2022/04/18 09:52:21;;;;;;;6.70;2.97;;;;;;;21.08;27.06;101849.25;5071999;28;20503;-55
2022/04/18 09:54:52;;;;;;;6.45;3.40;;;;;;;21.22;27.45;101858.63;5072367;28;20496;-55
2022/04/18 09:57:22;;;;;;;8.07;3.38;;;;;;;21.26;27.40;101852.00;5071645;28;20053;-54
2022/04/18 09:59:53;;;;;;;6.85;3.67;;;;;;;21.21;28.00;101852.44;5072031;28;20499;-55
2022/04/18 10:02:22;;;;;;;7.28;3.30;;;;;;;21.39;26.42;101841.81;5069419;28;20044;-53
2022/04/18 10:04:51;;;;;;;6.63;3.38;;;;;;;20.93;27.18;101838.16;5065050;28;20565;-53
2022/04/18 10:07:20;;;;;;;5.35;3.10;;;;;;;21.66;26.75;101832.13;5069711;28;20044;-56
2022/04/18 10:09:48;;;;;;;9.90;3.95;;;;;;;21.86;25.74;101835.56;5071856;28;20044;-54
2022/04/18 10:12:16;;;;;;;6.68;3.05;;;;;;;22.00;24.89;101839.53;5071491;28;20052;-54
2022/04/18 10:14:45;;;;;;;5.18;2.85;;;;;;;21.61;25.84;101835.28;5071820;28;20060;-52
2022/04/18 10:17:17;;;;;;;5.38;2.85;;;;;;;21.59;24.81;101834.56;5069931;28;20049;-54
2022/04/18 10:20:15;;;;;;;4.68;2.65;;;;;;;22.19;25.52;101835.06;5071762;28;20106;-52
2022/04/18 10:23:11;;;;;;;5.97;2.88;;;;;;;22.45;24.13;101833.34;5066398;28;20495;-53
2022/04/18 10:26:20;;;;;;;6.25;3.00;;;;;;;22.27;23.37;101825.25;5069892;28;20044;-56
2022/04/18 10:28:51;;;;;;;6.15;2.90;;;;;;;22.35;22.81;101821.84;4990190;28;20046;-57
2022/04/18 10:31:24;;;;;;;5.43;2.53;;;;;;;22.71;22.45;101826.31;5055368;28;20060;-59
2022/04/18 10:33:57;;;;;;;5.75;2.65;;;;;;;22.96;22.66;101827.34;5071677;28;20064;-56
2022/04/18 10:36:27;;;;;;;4.70;2.15;;;;;;;22.92;21.18;101815.25;5067858;28;20049;-55
2022/04/18 10:38:56;;;;;;;5.28;2.38;;;;;;;22.74;21.48;101826.00;5066136;28;20056;-55
2022/04/18 10:41:35;;;;;;;5.90;2.60;;;;;;;22.73;21.54;101827.00;5071650;28;21011;-55
2022/04/18 10:44:08;;;;;;;5.95;2.63;;;;;;;22.51;22.11;101823.81;5071522;28;20051;-56
2022/04/18 10:46:37;;;;;;;;;;;;;;;22.75;22.98;101816.94;5072321;28;20047;-54
2022/04/18 10:49:15;;;;;;;4.80;2.42;;;;;;;22.91;22.87;101816.22;5071280;28;19927;-56
2022/04/18 10:51:44;;;;;;;6.80;3.05;;;;;;;22.77;22.47;101815.81;5069919;28;20056;-55
2022/04/18 10:54:16;;;;;;;7.68;2.85;;;;;;;22.99;22.13;101815.41;5066511;28;20052;-55
2022/04/18 10:56:52;;;;;;;6.93;3.30;;;;;;;23.28;22.77;101812.44;5068413;28;20060;-54
2022/04/18 10:59:23;;;;;;;6.35;3.28;;;;;;;23.41;22.36;101807.47;5071092;28;20055;-56
2022/04/18 11:01:52;;;;;;;7.78;3.55;;;;;;;23.36;23.99;101807.09;5071868;28;20044;-54
2022/04/18 11:04:26;;;;;;;7.75;3.50;;;;;;;24.04;24.57;101805.31;5071387;28;20048;-55
2022/04/18 11:07:01;;;;;;;6.07;3.90;;;;;;;24.27;22.46;101796.63;5069760;28;20053;-54
2022/04/18 11:09:31;;;;;;;5.75;3.28;;;;;;;24.53;21.67;101807.19;5066238;28;20063;-54
2022/04/18 11:12:06;;;;;;;5.43;2.90;;;;;;;24.49;19.45;101803.16;5069661;28;20403;-55
2022/04/18 11:14:53;;;;;;;5.70;3.08;;;;;;;24.16;20.47;101797.78;5070858;28;20572;-57
2022/04/18 11:17:29;;;;;;;5.88;3.30;;;;;;;24.21;22.86;101798.09;5067021;28;20064;-55
2022/04/18 11:20:26;;;;;;;5.80;3.03;;;;;;;24.71;21.16;101796.25;5067436;28;20053;-55
2022/04/18 11:23:20;;;;;;;6.30;3.25;;;;;;;24.53;20.34;101796.44;5070912;28;20056;-55
2022/04/18 11:25:53;;;;;;;5.20;2.90;;;;;;;24.79;20.86;101795.41;5071376;28;20526;-57
2022/04/18 11:28:21;;;;;;;7.63;3.50;;;;;;;24.38;20.58;101790.91;5069583;28;20419;-55
2022/04/18 11:30:49;;;;;;;5.72;3.30;;;;;;;24.66;21.29;101792.41;5070495;28;20044;-56
2022/04/18 11:33:17;;;;;;;7.30;3.10;;;;;;;25.18;21.00;101791.94;5074724;28;20049;-54
2022/04/18 11:35:48;;;;;;;5.00;3.08;;;;;;;25.19;20.04;101782.03;5074626;28;20044;-57
2022/04/18 11:38:16;;;;;;;6.07;3.35;;;;;;;24.89;20.68;101781.78;5074532;28;20056;-57
2022/04/18 11:40:45;;;;;;;6.45;3.20;;;;;;;24.94;20.52;101780.25;5074663;28;20053;-56
2022/04/18 11:43:14;;;;;;;6.22;2.97;;;;;;;25.44;20.79;101788.16;5074745;28;20059;-55
2022/04/18 11:45:42;;;;;;;5.60;3.20;;;;;;;25.74;19.62;101782.94;5074411;28;20466;-55
2022/04/18 11:48:12;;;;;;;6.47;3.00;;;;;;;26.04;19.64;101775.88;5074432;28;20059;-56